sensor_id;sensor_type;location;lat;lon;timestamp;P1;durP1;ratioP1;P2;durP2;ratioP2
23995;SDS011;12207;50.076;8.848;2023-09-19T00:00:45;414.77;;;102.13;;
23995;SDS011;12207;50.076;8.848;2023-09-19T00:03:14;392.52;;;97.38;;
23995;SDS011;12207;50.076;8.848;2023-09-19T00:05:40;396.60;;;100.65;;
23995;SDS011;12207;50.076;8.848;2023-09-19T00:08:09;388.02;;;98.03;;
23995;SDS011;12207;50.076;8.848;2023-09-19T00:10:38;393.15;;;98.95;;
23995;SDS011;12207;50.076;8.848;2023-09-19T00:13:06;395.08;;;99.43;;
23995;SDS011;12207;50.076;8.848;2023-09-19T00:15:37;389.77;;;98.28;;
23995;SDS011;12207;50.076;8.848;2023-09-19T00:18:05;379.70;;;95.97;;
23995;SDS011;12207;50.076;8.848;2023-09-19T00:20:35;401.75;;;99.25;;
23995;SDS011;12207;50.076;8.848;2023-09-19T00:23:03;384.33;;;98.50;;
23995;SDS011;12207;50.076;8.848;2023-09-19T00:25:34;390.85;;;96.05;;
23995;SDS011;12207;50.076;8.848;2023-09-19T00:28:02;401.05;;;98.78;;
23995;SDS011;12207;50.076;8.848;2023-09-19T00:30:32;387.55;;;99.57;;
23995;SDS011;12207;50.076;8.848;2023-09-19T00:32:59;388.80;;;98.55;;
23995;SDS011;12207;50.076;8.848;2023-09-19T00:35:26;398.55;;;97.53;;
23995;SDS011;12207;50.076;8.848;2023-09-19T00:37:52;382.35;;;98.38;;
23995;SDS011;12207;50.076;8.848;2023-09-19T00:40:19;405.63;;;100.50;;
23995;SDS011;12207;50.076;8.848;2023-09-19T00:42:46;415.63;;;100.13;;
23995;SDS011;12207;50.076;8.848;2023-09-19T00:45:14;383.13;;;94.50;;
23995;SDS011;12207;50.076;8.848;2023-09-19T00:47:43;388.38;;;98.93;;
23995;SDS011;12207;50.076;8.848;2023-09-19T00:50:13;390.50;;;97.15;;
23995;SDS011;12207;50.076;8.848;2023-09-19T00:52:45;392.02;;;97.82;;
23995;SDS011;12207;50.076;8.848;2023-09-19T00:55:14;403.35;;;98.43;;
23995;SDS011;12207;50.076;8.848;2023-09-19T00:57:41;381.98;;;97.53;;
23995;SDS011;12207;50.076;8.848;2023-09-19T01:00:09;378.75;;;96.00;;
23995;SDS011;12207;50.076;8.848;2023-09-19T01:02:46;398.63;;;99.38;;
23995;SDS011;12207;50.076;8.848;2023-09-19T01:05:13;382.25;;;97.38;;
23995;SDS011;12207;50.076;8.848;2023-09-19T01:07:39;398.45;;;98.72;;
23995;SDS011;12207;50.076;8.848;2023-09-19T01:10:06;398.90;;;98.20;;
23995;SDS011;12207;50.076;8.848;2023-09-19T01:18:43;408.98;;;100.55;;
23995;SDS011;12207;50.076;8.848;2023-09-19T01:21:55;388.27;;;94.90;;
23995;SDS011;12207;50.076;8.848;2023-09-19T01:30:54;394.50;;;97.90;;
23995;SDS011;12207;50.076;8.848;2023-09-19T01:33:24;391.85;;;99.55;;
23995;SDS011;12207;50.076;8.848;2023-09-19T01:35:51;383.13;;;95.68;;
23995;SDS011;12207;50.076;8.848;2023-09-19T01:38:23;394.27;;;99.53;;
23995;SDS011;12207;50.076;8.848;2023-09-19T01:41:11;407.70;;;98.28;;
23995;SDS011;12207;50.076;8.848;2023-09-19T01:43:42;394.93;;;96.67;;
23995;SDS011;12207;50.076;8.848;2023-09-19T01:46:19;375.45;;;95.93;;
23995;SDS011;12207;50.076;8.848;2023-09-19T01:51:36;379.85;;;97.90;;
23995;SDS011;12207;50.076;8.848;2023-09-19T01:54:36;385.40;;;100.90;;
23995;SDS011;12207;50.076;8.848;2023-09-19T01:57:27;388.33;;;96.40;;
23995;SDS011;12207;50.076;8.848;2023-09-19T02:00:03;379.35;;;96.88;;
23995;SDS011;12207;50.076;8.848;2023-09-19T02:02:34;393.45;;;100.55;;
23995;SDS011;12207;50.076;8.848;2023-09-19T02:05:02;376.80;;;96.70;;
23995;SDS011;12207;50.076;8.848;2023-09-19T02:07:29;391.50;;;98.68;;
23995;SDS011;12207;50.076;8.848;2023-09-19T02:09:58;396.77;;;97.93;;
23995;SDS011;12207;50.076;8.848;2023-09-19T02:12:25;382.98;;;97.45;;
23995;SDS011;12207;50.076;8.848;2023-09-19T02:14:52;388.98;;;97.55;;
23995;SDS011;12207;50.076;8.848;2023-09-19T02:17:18;394.45;;;101.57;;
23995;SDS011;12207;50.076;8.848;2023-09-19T02:19:44;393.98;;;99.50;;
23995;SDS011;12207;50.076;8.848;2023-09-19T02:22:11;388.55;;;96.03;;
23995;SDS011;12207;50.076;8.848;2023-09-19T02:24:37;394.27;;;98.03;;
23995;SDS011;12207;50.076;8.848;2023-09-19T02:27:04;390.48;;;96.18;;
23995;SDS011;12207;50.076;8.848;2023-09-19T02:29:30;392.30;;;96.88;;
23995;SDS011;12207;50.076;8.848;2023-09-19T02:31:57;398.13;;;99.20;;
23995;SDS011;12207;50.076;8.848;2023-09-19T02:34:23;396.27;;;98.00;;
23995;SDS011;12207;50.076;8.848;2023-09-19T02:36:50;388.70;;;96.35;;
23995;SDS011;12207;50.076;8.848;2023-09-19T02:39:18;382.60;;;95.38;;
23995;SDS011;12207;50.076;8.848;2023-09-19T02:41:44;401.10;;;98.03;;
23995;SDS011;12207;50.076;8.848;2023-09-19T02:44:11;403.58;;;97.80;;
23995;SDS011;12207;50.076;8.848;2023-09-19T02:46:37;377.95;;;95.38;;
23995;SDS011;12207;50.076;8.848;2023-09-19T02:49:03;398.80;;;97.57;;
23995;SDS011;12207;50.076;8.848;2023-09-19T02:51:31;395.90;;;98.18;;
23995;SDS011;12207;50.076;8.848;2023-09-19T02:54:01;375.65;;;94.65;;
23995;SDS011;12207;50.076;8.848;2023-09-19T02:56:28;392.10;;;96.47;;
23995;SDS011;12207;50.076;8.848;2023-09-19T02:58:55;397.10;;;96.75;;
23995;SDS011;12207;50.076;8.848;2023-09-19T03:01:22;383.90;;;95.85;;
23995;SDS011;12207;50.076;8.848;2023-09-19T03:03:51;385.55;;;97.72;;
23995;SDS011;12207;50.076;8.848;2023-09-19T03:06:18;398.73;;;95.25;;
23995;SDS011;12207;50.076;8.848;2023-09-19T03:08:45;395.55;;;97.97;;
23995;SDS011;12207;50.076;8.848;2023-09-19T03:11:11;400.77;;;98.43;;
23995;SDS011;12207;50.076;8.848;2023-09-19T03:13:40;385.95;;;94.72;;
23995;SDS011;12207;50.076;8.848;2023-09-19T03:16:07;391.30;;;97.13;;
23995;SDS011;12207;50.076;8.848;2023-09-19T03:18:36;404.63;;;99.15;;
23995;SDS011;12207;50.076;8.848;2023-09-19T03:21:02;391.73;;;97.32;;
23995;SDS011;12207;50.076;8.848;2023-09-19T03:23:29;387.08;;;96.50;;
23995;SDS011;12207;50.076;8.848;2023-09-19T03:25:55;403.05;;;99.10;;
23995;SDS011;12207;50.076;8.848;2023-09-19T03:28:22;391.48;;;98.00;;
23995;SDS011;12207;50.076;8.848;2023-09-19T03:31:01;383.73;;;95.88;;
23995;SDS011;12207;50.076;8.848;2023-09-19T03:33:29;388.85;;;95.63;;
23995;SDS011;12207;50.076;8.848;2023-09-19T03:35:59;380.10;;;95.13;;
23995;SDS011;12207;50.076;8.848;2023-09-19T03:38:30;393.27;;;94.47;;
23995;SDS011;12207;50.076;8.848;2023-09-19T03:41:00;392.27;;;96.85;;
23995;SDS011;12207;50.076;8.848;2023-09-19T03:43:27;387.25;;;96.32;;
23995;SDS011;12207;50.076;8.848;2023-09-19T03:45:53;396.73;;;95.10;;
23995;SDS011;12207;50.076;8.848;2023-09-19T03:48:19;404.20;;;99.25;;
23995;SDS011;12207;50.076;8.848;2023-09-19T03:50:47;387.75;;;97.47;;
23995;SDS011;12207;50.076;8.848;2023-09-19T03:53:13;387.48;;;95.32;;
23995;SDS011;12207;50.076;8.848;2023-09-19T03:55:39;392.35;;;95.97;;
23995;SDS011;12207;50.076;8.848;2023-09-19T03:58:05;391.15;;;98.88;;
23995;SDS011;12207;50.076;8.848;2023-09-19T04:00:32;400.17;;;96.82;;
23995;SDS011;12207;50.076;8.848;2023-09-19T04:02:59;399.02;;;97.78;;
23995;SDS011;12207;50.076;8.848;2023-09-19T04:05:28;400.73;;;97.10;;
23995;SDS011;12207;50.076;8.848;2023-09-19T04:07:54;385.58;;;94.40;;
23995;SDS011;12207;50.076;8.848;2023-09-19T04:10:22;392.80;;;95.72;;
23995;SDS011;12207;50.076;8.848;2023-09-19T04:12:52;408.65;;;98.53;;
23995;SDS011;12207;50.076;8.848;2023-09-19T04:15:19;396.40;;;95.88;;
23995;SDS011;12207;50.076;8.848;2023-09-19T04:17:50;397.35;;;95.55;;
23995;SDS011;12207;50.076;8.848;2023-09-19T04:20:17;385.05;;;94.28;;
23995;SDS011;12207;50.076;8.848;2023-09-19T04:22:44;397.50;;;97.63;;
23995;SDS011;12207;50.076;8.848;2023-09-19T04:25:11;402.80;;;98.03;;
23995;SDS011;12207;50.076;8.848;2023-09-19T04:27:38;390.98;;;97.35;;
23995;SDS011;12207;50.076;8.848;2023-09-19T04:30:05;393.52;;;97.63;;
23995;SDS011;12207;50.076;8.848;2023-09-19T04:32:35;401.02;;;97.20;;
23995;SDS011;12207;50.076;8.848;2023-09-19T04:35:05;382.73;;;96.05;;
23995;SDS011;12207;50.076;8.848;2023-09-19T04:37:34;427.52;;;100.68;;
23995;SDS011;12207;50.076;8.848;2023-09-19T04:40:07;385.10;;;95.30;;
23995;SDS011;12207;50.076;8.848;2023-09-19T04:45:05;383.17;;;93.15;;
23995;SDS011;12207;50.076;8.848;2023-09-19T04:47:32;395.85;;;96.90;;
23995;SDS011;12207;50.076;8.848;2023-09-19T04:49:58;389.73;;;95.30;;
23995;SDS011;12207;50.076;8.848;2023-09-19T04:52:24;390.35;;;99.03;;
23995;SDS011;12207;50.076;8.848;2023-09-19T04:54:50;382.13;;;93.38;;
23995;SDS011;12207;50.076;8.848;2023-09-19T04:57:17;386.98;;;95.55;;
23995;SDS011;12207;50.076;8.848;2023-09-19T04:59:43;395.90;;;95.35;;
23995;SDS011;12207;50.076;8.848;2023-09-19T05:02:09;383.60;;;93.18;;
23995;SDS011;12207;50.076;8.848;2023-09-19T05:04:37;392.00;;;97.32;;
23995;SDS011;12207;50.076;8.848;2023-09-19T05:07:03;382.73;;;94.18;;
23995;SDS011;12207;50.076;8.848;2023-09-19T05:09:29;395.02;;;97.20;;
23995;SDS011;12207;50.076;8.848;2023-09-19T05:11:57;376.75;;;95.03;;
23995;SDS011;12207;50.076;8.848;2023-09-19T05:14:23;381.88;;;93.82;;
23995;SDS011;12207;50.076;8.848;2023-09-19T05:16:49;383.98;;;95.85;;
23995;SDS011;12207;50.076;8.848;2023-09-19T05:19:15;391.00;;;95.95;;
23995;SDS011;12207;50.076;8.848;2023-09-19T05:21:42;396.63;;;94.53;;
23995;SDS011;12207;50.076;8.848;2023-09-19T05:24:08;390.40;;;94.95;;
23995;SDS011;12207;50.076;8.848;2023-09-19T05:26:34;395.88;;;98.55;;
23995;SDS011;12207;50.076;8.848;2023-09-19T05:29:03;384.70;;;95.22;;
23995;SDS011;12207;50.076;8.848;2023-09-19T05:31:30;396.02;;;97.50;;
23995;SDS011;12207;50.076;8.848;2023-09-19T05:33:56;387.08;;;96.78;;
23995;SDS011;12207;50.076;8.848;2023-09-19T05:36:23;386.40;;;95.18;;
23995;SDS011;12207;50.076;8.848;2023-09-19T05:38:49;402.48;;;98.32;;
23995;SDS011;12207;50.076;8.848;2023-09-19T05:41:17;389.92;;;95.07;;
23995;SDS011;12207;50.076;8.848;2023-09-19T05:43:44;395.83;;;95.65;;
23995;SDS011;12207;50.076;8.848;2023-09-19T05:46:10;387.42;;;97.68;;
23995;SDS011;12207;50.076;8.848;2023-09-19T05:48:40;387.33;;;98.63;;
23995;SDS011;12207;50.076;8.848;2023-09-19T05:51:08;383.10;;;99.35;;
23995;SDS011;12207;50.076;8.848;2023-09-19T05:53:35;387.15;;;96.43;;
23995;SDS011;12207;50.076;8.848;2023-09-19T05:56:01;388.80;;;96.00;;
23995;SDS011;12207;50.076;8.848;2023-09-19T05:58:27;389.23;;;95.93;;
23995;SDS011;12207;50.076;8.848;2023-09-19T06:00:56;390.20;;;96.65;;
23995;SDS011;12207;50.076;8.848;2023-09-19T06:03:22;381.08;;;94.72;;
23995;SDS011;12207;50.076;8.848;2023-09-19T06:05:48;397.45;;;97.05;;
23995;SDS011;12207;50.076;8.848;2023-09-19T06:08:16;414.75;;;100.32;;
23995;SDS011;12207;50.076;8.848;2023-09-19T06:10:42;383.13;;;94.53;;
23995;SDS011;12207;50.076;8.848;2023-09-19T06:13:08;394.23;;;97.38;;
23995;SDS011;12207;50.076;8.848;2023-09-19T06:15:35;400.38;;;100.60;;
23995;SDS011;12207;50.076;8.848;2023-09-19T06:18:01;401.70;;;101.57;;
23995;SDS011;12207;50.076;8.848;2023-09-19T06:20:29;396.05;;;100.25;;
23995;SDS011;12207;50.076;8.848;2023-09-19T06:22:56;391.48;;;98.63;;
23995;SDS011;12207;50.076;8.848;2023-09-19T06:25:22;385.20;;;97.25;;
23995;SDS011;12207;50.076;8.848;2023-09-19T06:27:49;387.90;;;99.80;;
23995;SDS011;12207;50.076;8.848;2023-09-19T06:30:20;394.05;;;100.25;;
23995;SDS011;12207;50.076;8.848;2023-09-19T06:32:57;389.10;;;98.43;;
23995;SDS011;12207;50.076;8.848;2023-09-19T06:35:23;393.33;;;96.20;;
23995;SDS011;12207;50.076;8.848;2023-09-19T06:37:51;387.73;;;98.70;;
23995;SDS011;12207;50.076;8.848;2023-09-19T06:40:17;382.67;;;98.32;;
23995;SDS011;12207;50.076;8.848;2023-09-19T06:42:45;400.08;;;97.07;;
23995;SDS011;12207;50.076;8.848;2023-09-19T06:45:14;381.42;;;95.20;;
23995;SDS011;12207;50.076;8.848;2023-09-19T06:47:44;397.55;;;100.55;;
23995;SDS011;12207;50.076;8.848;2023-09-19T06:50:11;388.23;;;99.97;;
23995;SDS011;12207;50.076;8.848;2023-09-19T06:52:42;394.80;;;98.75;;
23995;SDS011;12207;50.076;8.848;2023-09-19T06:55:09;394.67;;;100.43;;
23995;SDS011;12207;50.076;8.848;2023-09-19T06:57:36;396.42;;;100.13;;
23995;SDS011;12207;50.076;8.848;2023-09-19T07:00:03;384.77;;;99.40;;
23995;SDS011;12207;50.076;8.848;2023-09-19T07:02:34;395.02;;;100.38;;
23995;SDS011;12207;50.076;8.848;2023-09-19T07:05:00;406.25;;;102.00;;
23995;SDS011;12207;50.076;8.848;2023-09-19T07:07:26;384.63;;;102.07;;
23995;SDS011;12207;50.076;8.848;2023-09-19T07:09:54;400.48;;;102.32;;
23995;SDS011;12207;50.076;8.848;2023-09-19T07:12:20;399.80;;;102.00;;
23995;SDS011;12207;50.076;8.848;2023-09-19T07:14:46;397.25;;;105.13;;
23995;SDS011;12207;50.076;8.848;2023-09-19T07:17:12;396.90;;;102.47;;
23995;SDS011;12207;50.076;8.848;2023-09-19T07:19:43;404.67;;;102.47;;
23995;SDS011;12207;50.076;8.848;2023-09-19T07:22:10;403.88;;;103.60;;
23995;SDS011;12207;50.076;8.848;2023-09-19T07:24:36;405.35;;;103.72;;
23995;SDS011;12207;50.076;8.848;2023-09-19T07:27:03;391.27;;;103.07;;
23995;SDS011;12207;50.076;8.848;2023-09-19T07:29:30;402.23;;;102.35;;
23995;SDS011;12207;50.076;8.848;2023-09-19T07:31:56;405.48;;;104.80;;
23995;SDS011;12207;50.076;8.848;2023-09-19T07:34:22;404.85;;;103.45;;
23995;SDS011;12207;50.076;8.848;2023-09-19T07:36:49;397.00;;;102.72;;
23995;SDS011;12207;50.076;8.848;2023-09-19T07:39:15;408.58;;;106.03;;
23995;SDS011;12207;50.076;8.848;2023-09-19T07:41:41;401.55;;;102.03;;
23995;SDS011;12207;50.076;8.848;2023-09-19T07:44:07;398.45;;;102.65;;
23995;SDS011;12207;50.076;8.848;2023-09-19T07:46:35;402.63;;;103.03;;
23995;SDS011;12207;50.076;8.848;2023-09-19T07:49:01;396.45;;;104.35;;
23995;SDS011;12207;50.076;8.848;2023-09-19T07:51:27;390.85;;;103.55;;
23995;SDS011;12207;50.076;8.848;2023-09-19T07:53:54;405.33;;;104.78;;
23995;SDS011;12207;50.076;8.848;2023-09-19T07:56:20;415.35;;;106.68;;
23995;SDS011;12207;50.076;8.848;2023-09-19T07:58:47;389.88;;;105.22;;
23995;SDS011;12207;50.076;8.848;2023-09-19T08:01:13;397.17;;;103.57;;
23995;SDS011;12207;50.076;8.848;2023-09-19T08:03:41;394.98;;;105.45;;
23995;SDS011;12207;50.076;8.848;2023-09-19T08:06:08;393.52;;;101.78;;
23995;SDS011;12207;50.076;8.848;2023-09-19T08:08:34;423.60;;;106.85;;
23995;SDS011;12207;50.076;8.848;2023-09-19T08:11:02;389.48;;;102.82;;
23995;SDS011;12207;50.076;8.848;2023-09-19T08:13:39;402.00;;;102.65;;
23995;SDS011;12207;50.076;8.848;2023-09-19T08:16:08;395.40;;;105.07;;
23995;SDS011;12207;50.076;8.848;2023-09-19T08:18:35;410.50;;;106.85;;
23995;SDS011;12207;50.076;8.848;2023-09-19T08:21:04;386.02;;;101.60;;
23995;SDS011;12207;50.076;8.848;2023-09-19T08:23:35;408.67;;;105.03;;
23995;SDS011;12207;50.076;8.848;2023-09-19T08:26:06;390.42;;;105.75;;
23995;SDS011;12207;50.076;8.848;2023-09-19T08:28:36;406.63;;;105.63;;
23995;SDS011;12207;50.076;8.848;2023-09-19T08:31:06;394.08;;;102.30;;
23995;SDS011;12207;50.076;8.848;2023-09-19T08:33:33;398.30;;;103.88;;
23995;SDS011;12207;50.076;8.848;2023-09-19T08:36:03;411.10;;;106.03;;
23995;SDS011;12207;50.076;8.848;2023-09-19T08:38:35;408.15;;;105.32;;
23995;SDS011;12207;50.076;8.848;2023-09-19T08:41:05;391.17;;;105.90;;
23995;SDS011;12207;50.076;8.848;2023-09-19T08:43:35;425.83;;;111.25;;
23995;SDS011;12207;50.076;8.848;2023-09-19T08:48:31;403.98;;;105.20;;
23995;SDS011;12207;50.076;8.848;2023-09-19T08:51:00;391.80;;;105.40;;
23995;SDS011;12207;50.076;8.848;2023-09-19T08:53:34;407.25;;;110.07;;
23995;SDS011;12207;50.076;8.848;2023-09-19T08:56:15;413.08;;;110.95;;
23995;SDS011;12207;50.076;8.848;2023-09-19T08:58:48;412.90;;;108.57;;
23995;SDS011;12207;50.076;8.848;2023-09-19T09:01:19;407.80;;;107.97;;
23995;SDS011;12207;50.076;8.848;2023-09-19T09:03:55;404.08;;;107.13;;
23995;SDS011;12207;50.076;8.848;2023-09-19T09:06:23;388.80;;;109.93;;
23995;SDS011;12207;50.076;8.848;2023-09-19T09:08:50;414.15;;;114.57;;
23995;SDS011;12207;50.076;8.848;2023-09-19T09:11:19;402.25;;;111.70;;
23995;SDS011;12207;50.076;8.848;2023-09-19T09:13:47;400.17;;;112.97;;
23995;SDS011;12207;50.076;8.848;2023-09-19T09:16:14;416.60;;;116.05;;
23995;SDS011;12207;50.076;8.848;2023-09-19T09:18:44;411.77;;;161.07;;
23995;SDS011;12207;50.076;8.848;2023-09-19T09:21:17;423.85;;;121.53;;
23995;SDS011;12207;50.076;8.848;2023-09-19T09:23:46;404.40;;;115.90;;
23995;SDS011;12207;50.076;8.848;2023-09-19T09:26:14;412.63;;;118.47;;
23995;SDS011;12207;50.076;8.848;2023-09-19T09:28:44;413.75;;;118.18;;
23995;SDS011;12207;50.076;8.848;2023-09-19T09:31:22;400.60;;;117.10;;
23995;SDS011;12207;50.076;8.848;2023-09-19T09:33:56;395.55;;;115.82;;
23995;SDS011;12207;50.076;8.848;2023-09-19T09:36:35;402.88;;;114.88;;
23995;SDS011;12207;50.076;8.848;2023-09-19T09:39:03;402.77;;;115.22;;
23995;SDS011;12207;50.076;8.848;2023-09-19T09:41:56;386.20;;;110.45;;
23995;SDS011;12207;50.076;8.848;2023-09-19T09:44:24;411.50;;;113.32;;
23995;SDS011;12207;50.076;8.848;2023-09-19T09:46:52;420.52;;;115.85;;
23995;SDS011;12207;50.076;8.848;2023-09-19T09:49:22;396.60;;;116.45;;
23995;SDS011;12207;50.076;8.848;2023-09-19T09:52:05;419.50;;;118.35;;
23995;SDS011;12207;50.076;8.848;2023-09-19T09:54:34;407.23;;;118.40;;
23995;SDS011;12207;50.076;8.848;2023-09-19T09:57:07;413.17;;;119.47;;
23995;SDS011;12207;50.076;8.848;2023-09-19T09:59:54;400.42;;;121.18;;
23995;SDS011;12207;50.076;8.848;2023-09-19T10:02:40;421.17;;;120.68;;
23995;SDS011;12207;50.076;8.848;2023-09-19T10:05:17;404.13;;;123.28;;
23995;SDS011;12207;50.076;8.848;2023-09-19T10:07:48;410.60;;;123.57;;
23995;SDS011;12207;50.076;8.848;2023-09-19T10:10:33;417.05;;;121.63;;
23995;SDS011;12207;50.076;8.848;2023-09-19T10:13:11;415.77;;;121.88;;
23995;SDS011;12207;50.076;8.848;2023-09-19T10:15:40;409.85;;;121.47;;
23995;SDS011;12207;50.076;8.848;2023-09-19T10:18:15;424.60;;;119.03;;
23995;SDS011;12207;50.076;8.848;2023-09-19T10:20:47;399.13;;;114.97;;
23995;SDS011;12207;50.076;8.848;2023-09-19T10:23:17;409.27;;;120.97;;
23995;SDS011;12207;50.076;8.848;2023-09-19T10:25:48;413.42;;;117.75;;
23995;SDS011;12207;50.076;8.848;2023-09-19T10:28:17;399.08;;;120.15;;
23995;SDS011;12207;50.076;8.848;2023-09-19T10:30:51;408.88;;;118.47;;
23995;SDS011;12207;50.076;8.848;2023-09-19T10:33:18;405.90;;;118.28;;
23995;SDS011;12207;50.076;8.848;2023-09-19T10:35:50;400.27;;;120.43;;
23995;SDS011;12207;50.076;8.848;2023-09-19T10:38:17;436.67;;;129.60;;
23995;SDS011;12207;50.076;8.848;2023-09-19T10:40:51;405.85;;;117.70;;
23995;SDS011;12207;50.076;8.848;2023-09-19T10:43:30;407.63;;;118.88;;
23995;SDS011;12207;50.076;8.848;2023-09-19T10:46:01;400.38;;;124.13;;
23995;SDS011;12207;50.076;8.848;2023-09-19T10:48:35;421.10;;;124.25;;
23995;SDS011;12207;50.076;8.848;2023-09-19T10:51:08;400.70;;;118.25;;
23995;SDS011;12207;50.076;8.848;2023-09-19T10:53:46;399.42;;;118.68;;
23995;SDS011;12207;50.076;8.848;2023-09-19T10:56:39;402.58;;;118.97;;
23995;SDS011;12207;50.076;8.848;2023-09-19T10:59:12;413.35;;;117.68;;
23995;SDS011;12207;50.076;8.848;2023-09-19T11:04:32;391.52;;;117.18;;
23995;SDS011;12207;50.076;8.848;2023-09-19T11:07:10;399.33;;;115.68;;
23995;SDS011;12207;50.076;8.848;2023-09-19T11:09:52;430.80;;;123.25;;
23995;SDS011;12207;50.076;8.848;2023-09-19T11:15:06;420.17;;;122.65;;
23995;SDS011;12207;50.076;8.848;2023-09-19T11:17:36;408.02;;;120.38;;
23995;SDS011;12207;50.076;8.848;2023-09-19T11:30:32;396.85;;;121.13;;
23995;SDS011;12207;50.076;8.848;2023-09-19T11:36:10;409.17;;;119.60;;
23995;SDS011;12207;50.076;8.848;2023-09-19T11:43:51;411.48;;;126.30;;
23995;SDS011;12207;50.076;8.848;2023-09-19T11:46:26;402.15;;;121.03;;
23995;SDS011;12207;50.076;8.848;2023-09-19T11:48:53;409.80;;;122.45;;
23995;SDS011;12207;50.076;8.848;2023-09-19T11:51:20;413.23;;;124.20;;
23995;SDS011;12207;50.076;8.848;2023-09-19T11:53:53;421.45;;;126.50;;
23995;SDS011;12207;50.076;8.848;2023-09-19T11:56:21;400.27;;;123.10;;
23995;SDS011;12207;50.076;8.848;2023-09-19T11:58:50;411.27;;;126.55;;
23995;SDS011;12207;50.076;8.848;2023-09-19T12:01:24;413.98;;;129.25;;
23995;SDS011;12207;50.076;8.848;2023-09-19T12:03:55;415.65;;;127.72;;
23995;SDS011;12207;50.076;8.848;2023-09-19T12:06:23;421.38;;;125.00;;
23995;SDS011;12207;50.076;8.848;2023-09-19T12:09:01;422.88;;;124.13;;
23995;SDS011;12207;50.076;8.848;2023-09-19T12:11:32;435.40;;;128.68;;
23995;SDS011;12207;50.076;8.848;2023-09-19T12:14:07;417.88;;;125.82;;
23995;SDS011;12207;50.076;8.848;2023-09-19T12:16:34;414.98;;;128.88;;
23995;SDS011;12207;50.076;8.848;2023-09-19T12:19:22;410.00;;;123.40;;
23995;SDS011;12207;50.076;8.848;2023-09-19T12:22:22;433.25;;;131.65;;
23995;SDS011;12207;50.076;8.848;2023-09-19T12:24:41;438.23;;;127.82;;
23995;SDS011;12207;50.076;8.848;2023-09-19T12:27:09;396.95;;;125.22;;
23995;SDS011;12207;50.076;8.848;2023-09-19T12:29:46;428.63;;;128.05;;
23995;SDS011;12207;50.076;8.848;2023-09-19T12:32:14;399.95;;;124.45;;
23995;SDS011;12207;50.076;8.848;2023-09-19T12:34:52;412.08;;;126.82;;
23995;SDS011;12207;50.076;8.848;2023-09-19T12:37:19;416.30;;;133.38;;
23995;SDS011;12207;50.076;8.848;2023-09-19T12:39:47;431.27;;;134.43;;
23995;SDS011;12207;50.076;8.848;2023-09-19T12:42:16;430.08;;;137.48;;
23995;SDS011;12207;50.076;8.848;2023-09-19T12:44:57;416.98;;;131.75;;
23995;SDS011;12207;50.076;8.848;2023-09-19T12:47:25;403.58;;;128.45;;
23995;SDS011;12207;50.076;8.848;2023-09-19T12:50:09;412.67;;;132.85;;
23995;SDS011;12207;50.076;8.848;2023-09-19T12:52:45;423.45;;;130.05;;
23995;SDS011;12207;50.076;8.848;2023-09-19T12:55:27;410.48;;;128.65;;
23995;SDS011;12207;50.076;8.848;2023-09-19T12:58:08;426.83;;;129.93;;
23995;SDS011;12207;50.076;8.848;2023-09-19T13:00:43;420.13;;;126.50;;
23995;SDS011;12207;50.076;8.848;2023-09-19T13:06:01;408.98;;;132.70;;
23995;SDS011;12207;50.076;8.848;2023-09-19T13:08:31;431.67;;;136.07;;
23995;SDS011;12207;50.076;8.848;2023-09-19T13:11:13;406.30;;;132.02;;
23995;SDS011;12207;50.076;8.848;2023-09-19T13:13:46;409.50;;;133.05;;
23995;SDS011;12207;50.076;8.848;2023-09-19T13:18:48;398.85;;;128.27;;
23995;SDS011;12207;50.076;8.848;2023-09-19T13:21:16;415.00;;;130.82;;
23995;SDS011;12207;50.076;8.848;2023-09-19T13:23:52;404.80;;;130.48;;
23995;SDS011;12207;50.076;8.848;2023-09-19T13:26:39;417.10;;;128.77;;
23995;SDS011;12207;50.076;8.848;2023-09-19T13:29:05;403.65;;;131.50;;
23995;SDS011;12207;50.076;8.848;2023-09-19T13:31:31;428.02;;;129.50;;
23995;SDS011;12207;50.076;8.848;2023-09-19T13:33:57;422.10;;;131.93;;
23995;SDS011;12207;50.076;8.848;2023-09-19T13:36:23;403.00;;;126.65;;
23995;SDS011;12207;50.076;8.848;2023-09-19T13:38:49;417.48;;;127.78;;
23995;SDS011;12207;50.076;8.848;2023-09-19T13:41:18;413.33;;;126.47;;
23995;SDS011;12207;50.076;8.848;2023-09-19T13:43:44;403.17;;;125.55;;
23995;SDS011;12207;50.076;8.848;2023-09-19T13:46:14;442.08;;;133.98;;
23995;SDS011;12207;50.076;8.848;2023-09-19T13:48:41;422.02;;;126.43;;
23995;SDS011;12207;50.076;8.848;2023-09-19T13:51:07;395.63;;;125.13;;
23995;SDS011;12207;50.076;8.848;2023-09-19T13:53:33;408.92;;;124.55;;
23995;SDS011;12207;50.076;8.848;2023-09-19T13:55:59;402.05;;;123.55;;
23995;SDS011;12207;50.076;8.848;2023-09-19T13:58:25;403.50;;;128.80;;
23995;SDS011;12207;50.076;8.848;2023-09-19T14:00:52;404.08;;;122.50;;
23995;SDS011;12207;50.076;8.848;2023-09-19T14:03:21;412.27;;;127.70;;
23995;SDS011;12207;50.076;8.848;2023-09-19T14:05:47;396.35;;;125.95;;
23995;SDS011;12207;50.076;8.848;2023-09-19T14:08:16;415.02;;;121.60;;
23995;SDS011;12207;50.076;8.848;2023-09-19T14:10:42;416.02;;;128.32;;
23995;SDS011;12207;50.076;8.848;2023-09-19T14:13:08;399.65;;;123.75;;
23995;SDS011;12207;50.076;8.848;2023-09-19T14:15:38;413.00;;;122.18;;
23995;SDS011;12207;50.076;8.848;2023-09-19T14:18:04;430.23;;;124.28;;
23995;SDS011;12207;50.076;8.848;2023-09-19T14:20:30;406.50;;;122.75;;
23995;SDS011;12207;50.076;8.848;2023-09-19T14:22:56;423.00;;;124.22;;
23995;SDS011;12207;50.076;8.848;2023-09-19T14:25:26;442.13;;;126.63;;
23995;SDS011;12207;50.076;8.848;2023-09-19T14:27:55;433.52;;;129.13;;
23995;SDS011;12207;50.076;8.848;2023-09-19T14:30:21;432.23;;;130.13;;
23995;SDS011;12207;50.076;8.848;2023-09-19T14:32:48;425.08;;;130.05;;
23995;SDS011;12207;50.076;8.848;2023-09-19T14:35:14;417.65;;;125.53;;
23995;SDS011;12207;50.076;8.848;2023-09-19T14:37:41;400.42;;;121.63;;
23995;SDS011;12207;50.076;8.848;2023-09-19T14:40:07;421.27;;;125.00;;
23995;SDS011;12207;50.076;8.848;2023-09-19T14:42:40;423.40;;;130.15;;
23995;SDS011;12207;50.076;8.848;2023-09-19T14:45:09;419.83;;;125.90;;
23995;SDS011;12207;50.076;8.848;2023-09-19T14:47:36;409.38;;;127.15;;
23995;SDS011;12207;50.076;8.848;2023-09-19T14:50:02;405.30;;;121.38;;
23995;SDS011;12207;50.076;8.848;2023-09-19T14:52:32;439.05;;;129.57;;
23995;SDS011;12207;50.076;8.848;2023-09-19T14:55:01;414.13;;;127.20;;
23995;SDS011;12207;50.076;8.848;2023-09-19T14:57:28;400.85;;;123.57;;
23995;SDS011;12207;50.076;8.848;2023-09-19T14:59:54;422.90;;;127.25;;
23995;SDS011;12207;50.076;8.848;2023-09-19T15:02:30;409.00;;;124.68;;
23995;SDS011;12207;50.076;8.848;2023-09-19T15:04:59;421.25;;;125.65;;